createdAt,value
2022-12-06T00:00:09.019Z,100617.31
2022-12-06T00:03:14.245Z,100619.13
2022-12-06T00:06:17.795Z,100618.41
2022-12-06T00:09:21.496Z,100620.63
2022-12-06T00:12:23.156Z,100623.59
2022-12-06T00:15:26.133Z,100621.56
2022-12-06T00:18:27.743Z,100627.13
2022-12-06T00:21:31.348Z,100626.75
2022-12-06T00:24:34.581Z,100625.25
2022-12-06T00:27:36.248Z,100628.41
2022-12-06T00:30:39.249Z,100621.56
2022-12-06T00:33:40.967Z,100627.13
2022-12-06T00:36:43.315Z,100627.50
2022-12-06T00:39:45.010Z,100629.91
2022-12-06T00:42:46.719Z,100616.69
2022-12-06T00:45:49.683Z,100612.97
2022-12-06T00:48:52.267Z,100609.59
2022-12-06T00:51:54.097Z,100612.78
2022-12-06T00:54:55.732Z,100601.44
2022-12-06T00:57:57.397Z,100606.47
2022-12-06T01:01:09.333Z,100593.09
2022-12-06T01:04:11.100Z,100597.50
2022-12-06T01:07:12.711Z,100593.09
2022-12-06T01:10:14.420Z,100596.22
2022-12-06T01:13:16.057Z,100604.41
2022-12-06T01:16:21.169Z,100609.25
2022-12-06T01:19:22.710Z,100607.56
2022-12-06T01:22:24.326Z,100609.41
2022-12-06T01:25:26.608Z,100612.38
2022-12-06T01:28:29.076Z,100611.47
2022-12-06T01:31:38.218Z,100609.97
2022-12-06T01:34:40.941Z,100611.25
2022-12-06T01:37:42.567Z,100609.25
2022-12-06T01:40:47.149Z,100603.09
2022-12-06T01:43:49.796Z,100613.16
2022-12-06T01:46:52.799Z,100606.28
2022-12-06T01:50:01.121Z,100603.66
2022-12-06T01:53:06.839Z,100602.00
2022-12-06T01:56:09.139Z,100600.88
2022-12-06T01:59:11.397Z,100605.34
2022-12-06T02:02:14.670Z,100599.38
2022-12-06T02:05:17.103Z,100606.09
2022-12-06T02:08:20.312Z,100603.31
2022-12-06T02:11:22.032Z,100601.06
2022-12-06T02:14:28.274Z,100605.13
2022-12-06T02:17:41.186Z,100602.75
2022-12-06T02:20:46.919Z,100589.91
2022-12-06T02:24:35.236Z,100588.25
2022-12-06T02:27:55.038Z,100589.75
2022-12-06T02:31:05.026Z,100587.34
2022-12-06T02:34:13.920Z,100582.88
2022-12-06T02:37:22.441Z,100583.97
2022-12-06T02:40:32.884Z,100581.56
2022-12-06T02:43:38.103Z,100580.63
2022-12-06T02:46:43.629Z,100573.00
2022-12-06T02:49:50.005Z,100568.53
2022-12-06T02:52:53.717Z,100571.31
2022-12-06T02:55:56.517Z,100566.84
2022-12-06T02:58:58.228Z,100573.56
2022-12-06T03:02:04.351Z,100565.75
2022-12-06T03:05:16.653Z,100564.44
2022-12-06T03:08:27.766Z,100564.06
2022-12-06T03:11:37.379Z,100562.97
2022-12-06T03:14:45.752Z,100562.44
2022-12-06T03:17:52.612Z,100563.88
2022-12-06T03:20:59.208Z,100559.06
2022-12-06T03:24:01.689Z,100563.53
2022-12-06T03:27:07.621Z,100560.38
2022-12-06T03:30:12.638Z,100558.88
2022-12-06T03:33:17.443Z,100560.00
2022-12-06T03:36:19.977Z,100564.47
2022-12-06T03:39:27.206Z,100552.22
2022-12-06T03:42:29.316Z,100558.69
2022-12-06T03:45:38.990Z,100562.78
2022-12-06T03:48:45.428Z,100562.44
2022-12-06T03:51:47.694Z,100558.16
2022-12-06T03:54:49.350Z,100549.25
2022-12-06T03:57:50.962Z,100550.16
2022-12-06T04:00:52.664Z,100550.88
2022-12-06T04:03:55.672Z,100547.56
2022-12-06T04:06:57.382Z,100548.66
2022-12-06T04:10:05.013Z,100549.06
2022-12-06T04:13:09.433Z,100549.06
2022-12-06T04:16:30.011Z,100541.63
2022-12-06T04:19:33.241Z,100537.16
2022-12-06T04:22:53.737Z,100529.16
2022-12-06T04:25:55.492Z,100531.94
2022-12-06T04:29:15.818Z,100531.00
2022-12-06T04:32:36.095Z,100534.72
2022-12-06T04:35:57.919Z,100528.81
2022-12-06T04:38:59.923Z,100522.47
2022-12-06T04:42:20.812Z,100523.19
2022-12-06T04:45:22.472Z,100525.63
2022-12-06T04:48:24.154Z,100522.47
2022-12-06T04:51:27.357Z,100514.50
2022-12-06T04:54:30.115Z,100513.53
2022-12-06T04:57:31.786Z,100506.69
2022-12-06T05:00:33.483Z,100504.44
2022-12-06T05:03:38.426Z,100502.97
2022-12-06T05:06:45.703Z,100511.88
2022-12-06T05:09:47.408Z,100513.53
2022-12-06T05:12:48.959Z,100517.63
2022-12-06T05:15:51.748Z,100518.38
2022-12-06T05:18:53.630Z,100508.50
2022-12-06T05:21:56.620Z,100513.94
2022-12-06T05:24:58.374Z,100511.88
2022-12-06T05:28:00.028Z,100513.56
2022-12-06T05:31:01.716Z,100516.72
2022-12-06T05:34:03.491Z,100510.56
2022-12-06T05:37:06.676Z,100510.94
2022-12-06T05:40:09.392Z,100511.13
2022-12-06T05:43:12.000Z,100509.06
2022-12-06T05:46:14.063Z,100515.41
2022-12-06T05:49:15.759Z,100523.38
2022-12-06T05:52:18.757Z,100524.47
2022-12-06T05:55:20.495Z,100521.91
2022-12-06T05:58:22.360Z,100527.09
2022-12-06T06:01:24.019Z,100529.72
2022-12-06T06:04:25.664Z,100533.06
2022-12-06T06:07:29.473Z,100526.72
2022-12-06T06:10:31.141Z,100530.25
2022-12-06T06:13:32.894Z,100529.13
2022-12-06T06:16:34.786Z,100523.94
2022-12-06T06:19:36.505Z,100543.03
2022-12-06T06:22:41.747Z,100534.13
2022-12-06T06:25:43.240Z,100539.53
2022-12-06T06:28:44.989Z,100535.84
2022-12-06T06:31:46.743Z,100530.41
2022-12-06T06:34:48.611Z,100531.72
2022-12-06T06:37:51.650Z,100528.75
2022-12-06T06:40:53.343Z,100528.00
2022-12-06T06:43:54.958Z,100536.38
2022-12-06T06:46:56.658Z,100533.00
2022-12-06T06:49:58.587Z,100530.03
2022-12-06T06:53:02.643Z,100542.13
2022-12-06T06:56:05.013Z,100546.00
2022-12-06T06:59:06.646Z,100532.81
2022-12-06T07:02:11.869Z,100531.53
2022-12-06T07:05:13.355Z,100535.06
2022-12-06T07:08:16.385Z,100539.34
2022-12-06T07:11:18.118Z,100529.13
2022-12-06T07:14:19.817Z,100539.91
2022-12-06T07:17:21.652Z,100538.00
2022-12-06T07:20:23.339Z,100534.50
2022-12-06T07:23:26.518Z,100539.66
2022-12-06T07:26:31.768Z,100532.63
2022-12-06T07:29:33.379Z,100529.31
2022-12-06T07:32:36.771Z,100534.09
2022-12-06T07:36:10.389Z,100538.38
2022-12-06T07:39:01.534Z,100537.22
2022-12-06T07:42:21.878Z,100545.03
2022-12-06T07:45:27.548Z,100542.59
2022-12-06T07:48:29.240Z,100544.84
2022-12-06T07:51:31.846Z,100535.91
2022-12-06T07:54:34.973Z,100546.47
2022-12-06T07:57:42.992Z,100547.97
2022-12-06T08:00:45.193Z,100538.31
2022-12-06T08:03:46.797Z,100546.47
2022-12-06T08:06:50.200Z,100546.44
2022-12-06T08:09:53.962Z,100546.13
2022-12-06T08:12:55.625Z,100548.16
2022-12-06T08:15:57.696Z,100550.03
2022-12-06T08:18:59.514Z,100549.25
2022-12-06T08:22:01.213Z,100544.63
2022-12-06T08:25:04.655Z,100542.94
2022-12-06T08:28:06.492Z,100543.34
2022-12-06T08:31:10.399Z,100544.13
2022-12-06T08:34:12.790Z,100542.66
2022-12-06T08:37:14.428Z,100548.41
2022-12-06T08:40:17.548Z,100544.13
2022-12-06T08:43:19.195Z,100552.69
2022-12-06T08:46:21.026Z,100549.16
2022-12-06T08:49:24.448Z,100541.38
2022-12-06T08:52:26.375Z,100544.53
2022-12-06T08:55:29.372Z,100543.22
2022-12-06T08:58:31.162Z,100546.41
2022-12-06T09:01:37.708Z,100543.03
2022-12-06T09:04:39.951Z,100544.31
2022-12-06T09:07:41.681Z,100538.00
2022-12-06T09:10:44.676Z,100534.69
2022-12-06T09:13:46.836Z,100538.63
2022-12-06T09:16:49.100Z,100545.25
2022-12-06T09:19:50.847Z,100544.31
2022-12-06T09:22:52.491Z,100541.03
2022-12-06T09:25:55.500Z,100544.53
2022-12-06T09:28:58.351Z,100541.75
2022-12-06T09:32:00.855Z,100539.84
2022-12-06T09:35:02.558Z,100539.28
2022-12-06T09:38:05.104Z,100539.66
2022-12-06T09:41:31.736Z,100547.25
2022-12-06T09:44:58.019Z,100543.75
2022-12-06T09:48:16.826Z,100547.50
2022-12-06T09:51:30.127Z,100550.28
2022-12-06T09:54:50.675Z,100552.53
2022-12-06T09:58:01.998Z,100560.50
2022-12-06T10:01:16.481Z,100559.59
2022-12-06T10:04:41.618Z,100555.69
2022-12-06T10:07:54.172Z,100555.31
2022-12-06T10:11:02.708Z,100556.56
2022-12-06T10:14:20.172Z,100556.63
2022-12-06T10:17:30.120Z,100561.47
2022-12-06T10:20:38.642Z,100552.72
2022-12-06T10:24:01.674Z,100549.38
2022-12-06T10:27:09.927Z,100548.09
2022-12-06T10:30:15.302Z,100553.47
2022-12-06T10:33:21.592Z,100548.09
2022-12-06T10:36:42.455Z,100549.03
2022-12-06T10:40:00.975Z,100546.59
2022-12-06T10:43:09.200Z,100549.97
2022-12-06T10:46:37.062Z,100553.50
2022-12-06T10:49:53.973Z,100543.09
2022-12-06T10:53:02.076Z,100554.63
2022-12-06T10:56:11.915Z,100552.97
2022-12-06T10:59:23.994Z,100556.13
2022-12-06T11:02:34.839Z,100541.06
2022-12-06T11:05:41.119Z,100548.47
2022-12-06T11:08:46.887Z,100551.44
2022-12-06T11:11:50.276Z,100544.00
2022-12-06T11:14:55.680Z,100542.56
2022-12-06T11:18:10.142Z,100547.59
2022-12-06T11:21:21.692Z,100541.25
2022-12-06T11:24:30.477Z,100543.50
2022-12-06T11:27:37.951Z,100547.78
2022-12-06T11:30:39.668Z,100533.44
2022-12-06T11:33:42.974Z,100542.75
2022-12-06T11:36:46.532Z,100542.75
2022-12-06T11:39:51.222Z,100537.72
2022-12-06T11:42:54.077Z,100537.91
2022-12-06T11:45:56.804Z,100541.81
2022-12-06T11:49:16.160Z,100533.47
2022-12-06T11:52:22.067Z,100526.38
2022-12-06T11:55:26.401Z,100522.88
2022-12-06T11:58:33.283Z,100520.63
2022-12-06T12:01:40.667Z,100522.66
2022-12-06T12:04:44.880Z,100518.97
2022-12-06T12:07:52.222Z,100518.97
2022-12-06T12:10:59.751Z,100518.59
2022-12-06T12:14:04.262Z,100506.84
2022-12-06T12:17:17.291Z,100511.50
2022-12-06T12:20:26.458Z,100508.53
2022-12-06T12:23:32.387Z,100508.94
2022-12-06T12:26:37.192Z,100506.06
2022-12-06T12:29:38.902Z,100500.69
2022-12-06T12:32:40.638Z,100499.97
2022-12-06T12:35:46.028Z,100502.78
2022-12-06T12:38:55.285Z,100496.78
2022-12-06T12:41:57.291Z,100506.06
2022-12-06T12:45:02.977Z,100510.75
2022-12-06T12:48:21.704Z,100514.84
2022-12-06T12:51:34.149Z,100513.75
2022-12-06T12:54:37.952Z,100509.66
2022-12-06T12:57:39.749Z,100518.00
2022-12-06T13:00:45.676Z,100504.78
2022-12-06T13:03:51.377Z,100511.09
2022-12-06T13:06:59.170Z,100510.00
2022-12-06T13:10:05.105Z,100509.06
2022-12-06T13:13:14.697Z,100506.66
2022-12-06T13:16:27.501Z,100514.47
2022-12-06T13:19:35.241Z,100503.53
2022-12-06T13:22:45.074Z,100505.72
2022-12-06T13:25:52.644Z,100496.59
2022-12-06T13:28:59.294Z,100499.75
2022-12-06T13:32:06.363Z,100502.56
2022-12-06T13:35:20.115Z,100497.75
2022-12-06T13:38:26.954Z,100499.44
2022-12-06T13:42:12.202Z,100507.41
2022-12-06T13:45:41.109Z,100499.59
2022-12-06T13:48:51.635Z,100493.47
2022-12-06T13:51:53.317Z,100503.53
2022-12-06T13:54:56.345Z,100506.31
2022-12-06T13:58:37.573Z,100509.25
2022-12-06T14:01:43.667Z,100498.25
2022-12-06T14:04:45.428Z,100495.88
2022-12-06T14:07:47.169Z,100499.22
2022-12-06T14:10:50.297Z,100498.28
2022-12-06T14:14:08.634Z,100497.38
2022-12-06T14:17:32.127Z,100511.69
2022-12-06T14:20:36.108Z,100519.84
2022-12-06T14:23:46.301Z,100518.72
2022-12-06T14:26:49.295Z,100515.94
2022-12-06T14:30:05.495Z,100510.75
2022-12-06T14:33:19.051Z,100504.59
2022-12-06T14:36:26.217Z,100509.41
2022-12-06T14:39:30.597Z,100507.38
2022-12-06T14:42:52.227Z,100509.06
2022-12-06T14:45:54.964Z,100506.25
2022-12-06T14:49:15.659Z,100498.47
2022-12-06T14:52:19.725Z,100503.84
2022-12-06T14:55:21.521Z,100503.91
2022-12-06T14:58:27.615Z,100508.16
2022-12-06T15:01:31.939Z,100504.22
2022-12-06T15:04:37.642Z,100495.69
2022-12-06T15:07:42.183Z,100497.16
2022-12-06T15:10:54.327Z,100501.84
2022-12-06T15:14:14.094Z,100494.94
2022-12-06T15:17:17.691Z,100489.72
2022-12-06T15:20:19.620Z,100493.09
2022-12-06T15:23:35.922Z,100497.56
2022-12-06T15:26:37.626Z,100505.94
2022-12-06T15:29:40.669Z,100501.28
2022-12-06T15:32:42.438Z,100498.69
2022-12-06T15:35:44.516Z,100505.72
2022-12-06T15:38:46.655Z,100497.94
2022-12-06T15:41:48.478Z,100500.53
2022-12-06T15:44:51.715Z,100504.44
2022-12-06T15:47:54.151Z,100507.44
2022-12-06T15:50:56.596Z,100510.75
2022-12-06T15:53:58.988Z,100510.25
2022-12-06T15:57:00.600Z,100508.19
2022-12-06T16:00:04.802Z,100501.31
2022-12-06T16:03:08.120Z,100503.72
2022-12-06T16:06:12.464Z,100506.31
2022-12-06T16:09:16.580Z,100507.41
2022-12-06T16:12:18.283Z,100506.88
2022-12-06T16:15:21.351Z,100507.25
2022-12-06T16:18:23.318Z,100512.44
2022-12-06T16:21:27.101Z,100510.94
2022-12-06T16:24:28.764Z,100513.94
2022-12-06T16:27:30.517Z,100513.00
2022-12-06T16:30:34.582Z,100509.84
2022-12-06T16:33:36.232Z,100514.50
2022-12-06T16:36:54.815Z,100508.75
2022-12-06T16:39:56.493Z,100515.97
2022-12-06T16:42:58.245Z,100503.75
2022-12-06T16:46:18.287Z,100503.53
2022-12-06T16:49:45.255Z,100500.56
2022-12-06T16:52:44.249Z,100498.91
2022-12-06T16:55:45.964Z,100507.63
2022-12-06T16:58:47.782Z,100501.50
2022-12-06T17:01:53.474Z,100504.84
2022-12-06T17:04:55.738Z,100500.38
2022-12-06T17:07:57.533Z,100506.13
2022-12-06T17:11:19.158Z,100497.22
2022-12-06T17:14:22.782Z,100491.09
2022-12-06T17:17:26.253Z,100496.28
2022-12-06T17:20:28.082Z,100503.53
2022-12-06T17:23:30.574Z,100502.63
2022-12-06T17:26:35.652Z,100502.22
2022-12-06T17:29:37.723Z,100505.03
2022-12-06T17:32:40.802Z,100508.19
2022-12-06T17:35:42.508Z,100505.97
2022-12-06T17:38:44.355Z,100501.13
2022-12-06T17:42:05.251Z,100501.13
2022-12-06T17:45:07.603Z,100502.44
2022-12-06T17:48:10.818Z,100500.56
2022-12-06T17:51:12.600Z,100504.47
2022-12-06T17:54:14.949Z,100502.22
2022-12-06T17:57:18.397Z,100505.97
2022-12-06T18:00:20.853Z,100506.16
2022-12-06T18:03:23.935Z,100505.78
2022-12-06T18:06:27.858Z,100509.66
2022-12-06T18:09:29.479Z,100511.31
2022-12-06T18:12:32.051Z,100508.91
2022-12-06T18:15:39.634Z,100509.09
2022-12-06T18:18:43.519Z,100509.09
2022-12-06T18:21:46.064Z,100509.28
2022-12-06T18:24:47.824Z,100507.81
2022-12-06T18:27:49.513Z,100509.50
2022-12-06T18:30:51.125Z,100504.47
2022-12-06T18:33:56.387Z,100513.97
2022-12-06T18:36:57.932Z,100512.28
2022-12-06T18:39:59.967Z,100515.22
2022-12-06T18:43:01.868Z,100508.56
2022-12-06T18:46:05.652Z,100517.09
2022-12-06T18:49:10.108Z,100523.00
2022-12-06T18:52:12.659Z,100524.53
2022-12-06T18:55:14.514Z,100520.09
2022-12-06T18:58:16.345Z,100522.47
2022-12-06T19:01:20.308Z,100524.50
2022-12-06T19:04:23.581Z,100519.13
2022-12-06T19:07:25.251Z,100527.13
2022-12-06T19:10:28.465Z,100516.16
2022-12-06T19:13:30.199Z,100517.09
2022-12-06T19:16:35.237Z,100514.88
2022-12-06T19:19:39.995Z,100520.81
2022-12-06T19:22:41.678Z,100522.09
2022-12-06T19:25:43.389Z,100526.00
2022-12-06T19:28:45.015Z,100531.56
2022-12-06T19:31:46.900Z,100530.47
2022-12-06T19:34:50.305Z,100525.66
2022-12-06T19:37:52.707Z,100528.97
2022-12-06T19:40:55.281Z,100521.91
2022-12-06T19:44:15.645Z,100518.75
2022-12-06T19:47:17.434Z,100514.69
2022-12-06T19:50:20.462Z,100520.22
2022-12-06T19:53:22.534Z,100515.78
2022-12-06T19:56:26.589Z,100513.56
2022-12-06T19:59:30.922Z,100521.34
2022-12-06T20:02:32.762Z,100518.56
2022-12-06T20:05:35.987Z,100520.06
2022-12-06T20:08:37.823Z,100524.47
2022-12-06T20:11:59.727Z,100526.56
2022-12-06T20:15:01.388Z,100530.63
2022-12-06T20:18:03.337Z,100524.88
2022-12-06T20:21:06.585Z,100528.63
2022-12-06T20:24:09.395Z,100535.84
2022-12-06T20:27:11.923Z,100530.09
2022-12-06T20:30:14.463Z,100532.88
2022-12-06T20:33:16.170Z,100525.44
2022-12-06T20:36:20.596Z,100527.84
2022-12-06T20:39:25.004Z,100531.38
2022-12-06T20:42:26.848Z,100534.50
2022-12-06T20:45:28.494Z,100525.44
2022-12-06T20:48:30.144Z,100532.28
2022-12-06T20:51:33.816Z,100535.06
2022-12-06T20:54:35.574Z,100534.88
2022-12-06T20:57:37.871Z,100535.28
2022-12-06T21:00:39.998Z,100532.31
2022-12-06T21:03:41.709Z,100524.69
2022-12-06T21:06:44.884Z,100512.25
2022-12-06T21:09:46.823Z,100523.94
2022-12-06T21:12:48.453Z,100521.16
2022-12-06T21:16:01.511Z,100523.00
2022-12-06T21:19:05.601Z,100522.84
2022-12-06T21:22:09.145Z,100525.22
2022-12-06T21:25:10.770Z,100524.28
2022-12-06T21:28:12.591Z,100517.94
2022-12-06T21:31:14.346Z,100518.31
2022-12-06T21:34:16.235Z,100525.50
2022-12-06T21:37:19.270Z,100521.00
2022-12-06T21:40:20.911Z,100528.09
2022-12-06T21:43:22.713Z,100523.78
2022-12-06T21:46:26.445Z,100522.97
2022-12-06T21:49:28.174Z,100519.75
2022-12-06T21:52:31.232Z,100517.03
2022-12-06T21:55:32.908Z,100533.50
2022-12-06T21:58:35.345Z,100526.81
2022-12-06T22:01:37.636Z,100524.03
2022-12-06T22:04:39.371Z,100522.13
2022-12-06T22:07:43.327Z,100522.31
2022-12-06T22:10:45.058Z,100525.13
2022-12-06T22:13:47.995Z,100519.19
2022-12-06T22:16:50.943Z,100521.41
2022-12-06T22:19:52.602Z,100524.91
2022-12-06T22:22:55.627Z,100526.97
2022-12-06T22:25:57.416Z,100518.06
2022-12-06T22:29:00.142Z,100515.88
2022-12-06T22:32:01.763Z,100523.25
2022-12-06T22:35:03.851Z,100521.00
2022-12-06T22:38:07.015Z,100524.56
2022-12-06T22:41:09.605Z,100521.06
2022-12-06T22:44:11.695Z,100533.09
2022-12-06T22:47:13.367Z,100527.59
2022-12-06T22:50:15.463Z,100532.09
2022-12-06T22:53:18.452Z,100527.63
2022-12-06T22:56:20.312Z,100526.00
2022-12-06T22:59:22.136Z,100527.09
2022-12-06T23:02:23.873Z,100513.03
2022-12-06T23:05:25.612Z,100510.91
2022-12-06T23:08:28.666Z,100521.41
2022-12-06T23:11:32.120Z,100520.41
2022-12-06T23:14:33.756Z,100522.03
2022-12-06T23:17:35.393Z,100512.28
2022-12-06T23:20:37.008Z,100510.63
2022-12-06T23:23:41.482Z,100514.19
2022-12-06T23:26:45.217Z,100519.19
2022-12-06T23:29:46.848Z,100520.31
2022-12-06T23:32:48.481Z,100523.47
2022-12-06T23:35:50.159Z,100515.91
2022-12-06T23:38:53.613Z,100523.31
2022-12-06T23:41:55.563Z,100518.88
2022-12-06T23:44:57.217Z,100510.72
2022-12-06T23:47:58.871Z,100523.50
2022-12-06T23:51:01.971Z,100523.31
2022-12-06T23:54:07.283Z,100509.44
2022-12-06T23:57:11.406Z,100508.88
